Time;durP1;ratioP1;P1;durP2;ratioP2;P2;SDS_P1;SDS_P2;PMS_P1;PMS_P2;Temp;Humidity;BMP_temperature;BMP_pressure;BME280_temperature;BME280_humidity;BME280_pressure;Samples;Min_cycle;Max_cycle;Signal;HPM_P1;HPM_P2
2021/05/08 00:02:22;;;;;;;21.50;14.02;;;6.00;82.00;;;;;;5001581;28;20015;-85
2021/05/08 00:04:47;;;;;;;26.00;16.20;;;6.00;82.40;;;;;;5001027;28;20076;-85
2021/05/08 00:07:13;;;;;;;23.02;13.32;;;6.00;82.60;;;;;;5001374;28;20038;-84
2021/05/08 00:09:38;;;;;;;19.17;13.00;;;6.00;82.30;;;;;;4994351;28;20031;-82
2021/05/08 00:12:05;;;;;;;20.52;14.80;;;6.00;83.20;;;;;;4984999;28;20087;-85
2021/05/08 00:14:30;;;;;;;21.58;13.35;;;5.90;82.70;;;;;;4981318;28;20019;-84
2021/05/08 00:16:56;;;;;;;17.00;12.18;;;5.90;82.80;;;;;;4979514;28;20042;-84
2021/05/08 00:19:22;;;;;;;20.60;13.80;;;5.90;82.30;;;;;;4979775;28;20177;-84
2021/05/08 00:21:48;;;;;;;19.23;12.98;;;5.90;82.50;;;;;;4980559;28;20023;-84
2021/05/08 00:24:14;;;;;;;17.27;12.93;;;5.80;82.30;;;;;;4980233;28;20501;-83
2021/05/08 00:26:39;;;;;;;21.15;12.73;;;5.80;83.00;;;;;;4982186;28;20200;-85
2021/05/08 00:29:06;;;;;;;20.25;13.27;;;5.80;83.50;;;;;;4981115;28;20027;-83
2021/05/08 00:31:33;;;;;;;17.85;11.60;;;5.80;83.70;;;;;;4978514;28;20061;-83
2021/05/08 00:33:58;;;;;;;21.17;12.57;;;5.70;83.20;;;;;;4982032;28;20512;-83
2021/05/08 00:36:24;;;;;;;21.50;13.88;;;5.70;83.50;;;;;;4979895;28;20070;-84
2021/05/08 00:38:50;;;;;;;18.73;13.30;;;5.70;83.90;;;;;;4990440;28;20030;-82
2021/05/08 00:41:15;;;;;;;19.20;13.65;;;5.70;83.90;;;;;;4981147;28;20023;-84
2021/05/08 00:43:41;;;;;;;19.85;13.77;;;5.80;83.90;;;;;;4980431;28;20027;-83
2021/05/08 00:46:07;;;;;;;20.17;13.02;;;5.70;83.80;;;;;;4979084;28;20474;-83
2021/05/08 00:48:33;;;;;;;24.23;14.05;;;5.70;83.80;;;;;;4978722;28;20066;-82
2021/05/08 00:50:59;;;;;;;20.77;13.68;;;5.70;84.20;;;;;;4978650;28;20086;-82
2021/05/08 00:53:25;;;;;;;17.50;13.27;;;5.60;84.30;;;;;;4979612;28;20070;-84
2021/05/08 00:55:51;;;;;;;19.40;13.90;;;5.60;84.60;;;;;;4978137;28;20434;-82
2021/05/08 00:58:18;;;;;;;17.67;13.70;;;5.60;84.70;;;;;;4978735;28;20023;-83
2021/05/08 01:00:44;;;;;;;18.35;13.23;;;5.60;85.00;;;;;;4979117;28;20507;-82
2021/05/08 01:03:12;;;;;;;20.17;14.45;;;5.60;84.60;;;;;;4979025;28;20023;-83
2021/05/08 01:05:37;;;;;;;19.17;12.88;;;5.60;84.90;;;;;;4979160;28;20102;-83
2021/05/08 01:08:04;;;;;;;23.08;12.80;;;5.60;84.80;;;;;;4980487;28;20078;-84
2021/05/08 01:10:31;;;;;;;19.55;13.88;;;5.50;84.80;;;;;;4979156;28;20037;-85
2021/05/08 01:12:58;;;;;;;24.17;14.32;;;5.50;84.80;;;;;;4979685;28;20034;-84
2021/05/08 01:15:25;;;;;;;19.40;13.43;;;5.60;85.00;;;;;;4986801;28;20027;-83
2021/05/08 01:17:51;;;;;;;23.15;14.23;;;5.50;85.30;;;;;;4979970;28;20113;-85
2021/05/08 01:20:17;;;;;;;17.80;13.82;;;5.50;85.30;;;;;;4980379;28;20022;-84
2021/05/08 01:22:44;;;;;;;19.48;13.70;;;5.50;85.60;;;;;;4979567;28;20026;-86
2021/05/08 01:25:15;;;;;;;20.70;15.18;;;5.50;85.70;;;;;;4980701;28;20029;-85
2021/05/08 01:27:48;;;;;;;20.65;14.63;;;5.50;85.80;;;;;;4979125;28;20377;-85
2021/05/08 01:30:17;;;;;;;20.55;14.48;;;5.50;86.00;;;;;;4978996;28;20118;-84
2021/05/08 01:32:43;;;;;;;20.17;14.98;;;5.50;86.30;;;;;;4980493;28;20105;-85
2021/05/08 01:35:09;;;;;;;23.15;14.15;;;5.50;86.60;;;;;;4980181;28;20033;-83
2021/05/08 01:37:35;;;;;;;22.42;15.30;;;5.40;86.60;;;;;;4978795;28;20019;-82
2021/05/08 01:40:11;;;;;;;26.73;15.93;;;5.40;86.70;;;;;;4977602;28;20026;-82
2021/05/08 01:42:42;;;;;;;20.77;16.05;;;5.40;86.80;;;;;;4979503;28;20019;-83
2021/05/08 01:45:12;;;;;;;29.05;16.95;;;5.40;87.10;;;;;;4979027;28;20110;-84
2021/05/08 01:47:39;;;;;;;;;;;5.40;87.20;;;;;;4979090;28;20473;-83
2021/05/08 01:50:06;;;;;;;23.90;16.17;;;5.40;87.20;;;;;;4981404;28;20012;-83
2021/05/08 01:52:31;;;;;;;23.67;17.42;;;5.40;87.30;;;;;;4992906;28;20074;-83
2021/05/08 01:54:57;;;;;;;21.90;16.23;;;5.40;87.80;;;;;;4996096;28;20027;-84
2021/05/08 01:57:23;;;;;;;21.63;16.23;;;5.40;87.60;;;;;;4998893;28;20047;-82
2021/05/08 01:59:48;;;;;;;27.00;16.50;;;5.50;87.40;;;;;;4998985;28;20038;-83
2021/05/08 02:02:14;;;;;;;27.17;16.63;;;5.40;87.20;;;;;;4997764;28;20034;-82
2021/05/08 02:04:40;;;;;;;23.80;15.68;;;5.50;87.30;;;;;;4993266;28;20022;-81
2021/05/08 02:07:14;;;;;;;25.38;15.18;;;5.50;87.10;;;;;;4979468;28;20147;-82
2021/05/08 02:09:40;;;;;;;20.88;15.55;;;5.50;87.10;;;;;;4979695;28;20034;-82
2021/05/08 02:12:06;;;;;;;25.15;15.68;;;5.50;87.20;;;;;;4980359;28;20031;-82
2021/05/08 02:14:32;;;;;;;21.02;15.95;;;5.50;86.90;;;;;;4987327;28;20030;-84
2021/05/08 02:16:58;;;;;;;22.48;15.43;;;5.50;86.90;;;;;;4986031;28;20027;-85
2021/05/08 02:19:23;;;;;;;22.65;16.13;;;5.60;86.80;;;;;;4980661;28;20018;-83
2021/05/08 02:21:49;;;;;;;26.10;16.85;;;5.50;86.90;;;;;;4980738;28;20030;-84
2021/05/08 02:24:14;;;;;;;20.88;15.25;;;5.60;87.10;;;;;;4982159;28;20027;-84
2021/05/08 02:26:40;;;;;;;24.77;16.90;;;5.70;87.10;;;;;;4978856;28;20021;-83
2021/05/08 02:29:06;;;;;;;22.05;15.75;;;5.60;87.00;;;;;;4989517;28;20085;-84
2021/05/08 02:31:31;;;;;;;20.67;16.23;;;5.70;86.70;;;;;;4978060;28;20029;-84
2021/05/08 02:33:57;;;;;;;23.35;16.67;;;5.70;87.60;;;;;;4978532;28;20437;-83
2021/05/08 02:36:22;;;;;;;21.88;15.45;;;5.80;86.80;;;;;;4978330;28;20412;-84
2021/05/08 02:38:48;;;;;;;23.73;15.85;;;5.80;86.50;;;;;;4977913;28;20026;-83
2021/05/08 02:41:14;;;;;;;22.50;15.70;;;5.80;86.30;;;;;;4977337;28;20084;-82
2021/05/08 02:43:40;;;;;;;22.70;16.20;;;5.90;86.50;;;;;;4976646;28;20053;-83
2021/05/08 02:46:05;;;;;;;23.90;16.67;;;5.90;86.20;;;;;;4975505;28;20030;-82
2021/05/08 02:48:31;;;;;;;18.98;13.68;;;6.00;86.10;;;;;;4975751;28;20118;-81
2021/05/08 02:50:56;;;;;;;18.88;14.57;;;6.00;85.80;;;;;;4976687;28;20023;-85
2021/05/08 02:53:22;;;;;;;19.13;14.02;;;6.00;85.50;;;;;;4978002;28;20023;-85
2021/05/08 02:55:48;;;;;;;19.00;14.27;;;6.00;85.30;;;;;;4976623;28;20030;-86
2021/05/08 02:58:13;;;;;;;20.48;13.93;;;6.00;85.40;;;;;;4974975;28;20482;-85
2021/05/08 03:00:39;;;;;;;20.48;14.43;;;6.10;85.20;;;;;;4976768;28;20046;-84
2021/05/08 03:03:05;;;;;;;22.05;13.77;;;6.10;85.20;;;;;;4976286;28;20031;-84
2021/05/08 03:05:30;;;;;;;23.10;15.70;;;6.10;84.80;;;;;;4988470;28;20049;-85
2021/05/08 03:07:56;;;;;;;22.75;15.15;;;6.20;85.30;;;;;;4978537;28;20046;-86
2021/05/08 03:10:22;;;;;;;18.38;13.80;;;6.20;84.90;;;;;;4976770;28;20065;-86
2021/05/08 03:12:47;;;;;;;25.30;14.52;;;6.20;84.80;;;;;;4976366;28;20615;-84
2021/05/08 03:15:13;;;;;;;23.38;16.08;;;6.20;84.90;;;;;;4976222;28;20440;-86
2021/05/08 03:17:39;;;;;;;19.70;14.43;;;6.20;84.70;;;;;;4976955;28;20396;-84
2021/05/08 03:20:05;;;;;;;21.70;15.95;;;6.20;84.60;;;;;;4975572;28;20031;-84
2021/05/08 03:22:31;;;;;;;21.55;14.88;;;6.30;84.60;;;;;;4976137;28;20042;-84
2021/05/08 03:24:56;;;;;;;21.05;13.73;;;6.30;84.80;;;;;;4973976;28;20023;-82
2021/05/08 03:27:22;;;;;;;24.15;14.68;;;6.30;84.50;;;;;;4974565;28;20070;-82
2021/05/08 03:29:48;;;;;;;22.13;15.50;;;6.30;84.10;;;;;;4974640;28;20030;-82
2021/05/08 03:32:14;;;;;;;19.70;14.75;;;6.30;84.00;;;;;;4975090;28;20073;-81
2021/05/08 03:34:39;;;;;;;21.23;15.68;;;6.20;84.10;;;;;;4974402;28;20461;-82
2021/05/08 03:37:05;;;;;;;19.90;15.00;;;6.20;84.00;;;;;;4975280;28;20114;-82
2021/05/08 03:39:34;;;;;;;18.83;15.18;;;6.20;84.00;;;;;;4976583;28;20038;-80
2021/05/08 03:41:59;;;;;;;23.17;15.20;;;6.10;84.10;;;;;;4978288;28;20019;-83
2021/05/08 03:44:25;;;;;;;21.20;15.10;;;6.10;84.30;;;;;;4976155;28;20161;-80
2021/05/08 03:47:00;;;;;;;22.30;15.73;;;6.10;84.40;;;;;;4976282;28;20496;-82
2021/05/08 03:49:26;;;;;;;22.60;15.45;;;6.10;84.40;;;;;;4979942;28;20027;-81
2021/05/08 03:51:59;;;;;;;27.33;16.63;;;6.10;84.40;;;;;;4995610;28;20053;-82
2021/05/08 03:54:24;;;;;;;26.45;16.17;;;6.10;84.30;;;;;;4994115;28;20084;-82
2021/05/08 03:56:53;;;;;;;21.08;16.05;;;6.10;84.30;;;;;;4997130;28;20047;-82
2021/05/08 03:59:18;;;;;;;24.17;16.13;;;6.10;84.30;;;;;;4994767;28;20066;-81
2021/05/08 04:01:44;;;;;;;24.90;16.58;;;6.10;84.40;;;;;;4989650;28;20031;-81
2021/05/08 04:04:10;;;;;;;21.88;16.17;;;6.10;84.30;;;;;;4978266;28;20022;-82
2021/05/08 04:06:35;;;;;;;26.40;17.05;;;6.10;84.10;;;;;;4979813;28;20077;-81
2021/05/08 04:09:01;;;;;;;23.15;16.83;;;6.10;84.40;;;;;;4976576;28;20393;-82
2021/05/08 04:11:27;;;;;;;20.73;15.82;;;6.00;84.80;;;;;;4977603;28;20106;-81
2021/05/08 04:13:52;;;;;;;27.60;16.58;;;6.00;84.30;;;;;;4976738;28;20381;-83
2021/05/08 04:16:18;;;;;;;21.25;15.68;;;6.00;84.20;;;;;;4977532;28;20034;-82
2021/05/08 04:18:45;;;;;;;24.92;16.52;;;5.90;84.00;;;;;;4981494;28;20023;-80
2021/05/08 04:21:10;;;;;;;22.23;16.02;;;5.90;84.10;;;;;;4985118;28;20019;-80
2021/05/08 04:23:36;;;;;;;22.23;16.35;;;5.90;84.20;;;;;;4982158;28;20030;-81
2021/05/08 04:26:05;;;;;;;25.25;18.13;;;5.90;84.30;;;;;;4977167;28;20034;-82
2021/05/08 04:28:31;;;;;;;26.08;17.20;;;5.90;84.40;;;;;;4975464;28;20061;-82
2021/05/08 04:30:56;;;;;;;24.65;17.45;;;6.00;84.40;;;;;;4978218;28;20031;-83
2021/05/08 04:33:22;;;;;;;24.92;18.77;;;5.90;84.30;;;;;;4980465;28;20388;-84
2021/05/08 04:35:47;;;;;;;23.42;16.48;;;6.00;84.40;;;;;;4980905;28;20031;-82
2021/05/08 04:38:13;;;;;;;27.35;18.50;;;6.00;84.20;;;;;;4980628;28;20031;-82
2021/05/08 04:40:39;;;;;;;26.20;18.23;;;6.10;84.10;;;;;;4978357;28;20023;-81
2021/05/08 04:43:08;;;;;;;26.38;17.73;;;6.10;84.10;;;;;;4979557;28;20078;-83
2021/05/08 04:45:34;;;;;;;25.85;17.70;;;6.20;83.70;;;;;;4981095;28;20098;-82
2021/05/08 04:48:00;;;;;;;24.08;16.65;;;6.30;83.60;;;;;;4978766;28;20118;-82
2021/05/08 04:50:27;;;;;;;23.73;16.67;;;6.40;83.60;;;;;;4979289;28;20543;-83
2021/05/08 04:52:53;;;;;;;23.33;16.60;;;6.50;83.20;;;;;;4978362;28;20046;-83
2021/05/08 04:55:20;;;;;;;25.73;16.73;;;6.60;82.60;;;;;;4981276;28;20142;-81
2021/05/08 04:57:48;;;;;;;25.80;18.17;;;6.70;81.70;;;;;;4983055;28;20023;-81
2021/05/08 05:00:15;;;;;;;19.17;13.77;;;6.80;81.50;;;;;;4979269;28;20500;-81
2021/05/08 05:02:42;;;;;;;22.92;14.85;;;6.80;80.30;;;;;;4979785;28;20069;-82
2021/05/08 05:05:11;;;;;;;17.23;10.55;;;6.90;80.10;;;;;;4981293;28;20038;-81
2021/05/08 05:07:37;;;;;;;23.75;15.63;;;7.00;80.10;;;;;;4980672;28;20049;-80
2021/05/08 05:10:03;;;;;;;16.77;11.20;;;7.00;79.60;;;;;;4979674;28;20031;-80
2021/05/08 05:12:29;;;;;;;18.95;13.18;;;7.00;79.10;;;;;;4982529;28;20027;-79
2021/05/08 05:14:55;;;;;;;19.90;13.00;;;7.10;78.60;;;;;;4979209;28;20023;-82
2021/05/08 05:17:20;;;;;;;25.35;15.35;;;7.10;77.80;;;;;;4980739;28;20034;-82
2021/05/08 05:19:46;;;;;;;19.33;13.38;;;7.20;77.70;;;;;;4982067;28;20110;-82
2021/05/08 05:22:12;;;;;;;18.55;12.55;;;7.20;77.10;;;;;;4983216;28;20362;-82
2021/05/08 05:24:37;;;;;;;21.77;14.45;;;7.30;77.70;;;;;;4976965;28;20548;-81
2021/05/08 05:27:03;;;;;;;19.85;14.25;;;7.30;76.80;;;;;;4976270;28;20042;-81
2021/05/08 05:29:29;;;;;;;17.75;12.23;;;7.30;75.80;;;;;;4976587;28;20085;-82
2021/05/08 05:31:55;;;;;;;17.92;11.88;;;7.40;76.00;;;;;;4985758;28;20011;-82
2021/05/08 05:34:21;;;;;;;17.30;11.88;;;7.40;74.70;;;;;;4980621;28;20058;-81
2021/05/08 05:36:47;;;;;;;16.25;11.38;;;7.50;75.00;;;;;;4976720;28;20034;-81
2021/05/08 05:39:13;;;;;;;20.42;13.07;;;7.50;74.30;;;;;;4977410;28;20090;-81
2021/05/08 05:41:38;;;;;;;17.15;11.52;;;7.60;74.10;;;;;;4978904;28;20050;-82
2021/05/08 05:44:06;;;;;;;18.02;12.55;;;7.70;73.60;;;;;;4984596;28;20030;-80
2021/05/08 05:46:32;;;;;;;17.95;12.70;;;7.80;73.80;;;;;;4995020;28;20024;-82
2021/05/08 05:48:57;;;;;;;19.25;12.98;;;7.90;73.10;;;;;;4996648;28;20090;-82
2021/05/08 05:51:23;;;;;;;18.58;12.80;;;7.90;73.20;;;;;;4997398;28;20042;-82
2021/05/08 05:53:56;;;;;;;25.00;13.20;;;8.00;73.80;;;;;;4997749;28;20095;-83
2021/05/08 05:56:26;;;;;;;17.67;13.52;;;8.10;74.20;;;;;;4998061;28;20106;-83
2021/05/08 05:58:51;;;;;;;20.30;12.80;;;8.20;73.20;;;;;;4992571;28;20142;-82
2021/05/08 06:01:17;;;;;;;20.25;12.70;;;8.30;72.40;;;;;;4978856;28;20129;-82
2021/05/08 06:03:46;;;;;;;14.63;9.65;;;8.40;72.70;;;;;;4976901;28;20027;-81
2021/05/08 06:06:12;;;;;;;16.80;12.65;;;8.50;73.50;;;;;;4976808;28;20250;-82
2021/05/08 06:08:37;;;;;;;17.02;12.35;;;8.50;72.00;;;;;;4979801;28;20233;-85
2021/05/08 06:11:06;;;;;;;17.23;12.38;;;8.60;71.50;;;;;;4987994;28;20068;-83
2021/05/08 06:13:33;;;;;;;17.60;12.52;;;8.60;71.90;;;;;;4978647;28;20051;-83
2021/05/08 06:16:06;;;;;;;16.67;11.30;;;8.70;71.30;;;;;;4977381;28;20010;-80
2021/05/08 06:18:34;;;;;;;18.70;11.93;;;8.80;70.90;;;;;;4976938;28;20034;-80
2021/05/08 06:20:59;;;;;;;13.52;9.10;;;8.90;70.60;;;;;;4977760;28;20037;-80
2021/05/08 06:23:25;;;;;;;14.18;9.63;;;8.90;70.90;;;;;;4978736;28;20026;-84
2021/05/08 06:25:51;;;;;;;18.92;11.77;;;9.00;71.70;;;;;;4981284;28;20464;-82
2021/05/08 06:28:17;;;;;;;18.38;12.10;;;9.00;70.70;;;;;;4986782;28;20054;-81
2021/05/08 06:30:44;;;;;;;15.23;11.15;;;9.10;69.90;;;;;;4983079;28;20023;-82
2021/05/08 06:33:09;;;;;;;15.43;9.48;;;9.10;69.20;;;;;;4979251;28;20034;-83
2021/05/08 06:35:35;;;;;;;11.75;7.88;;;9.10;70.00;;;;;;4977901;28;20023;-82
2021/05/08 06:38:01;;;;;;;14.27;10.38;;;9.10;69.60;;;;;;4976948;28;20026;-83
2021/05/08 06:40:28;;;;;;;16.40;11.07;;;9.20;69.20;;;;;;4977747;28;20105;-82
2021/05/08 06:42:54;;;;;;;14.07;9.43;;;9.10;67.10;;;;;;4978028;28;20027;-82
2021/05/08 06:45:20;;;;;;;16.80;10.18;;;9.20;67.30;;;;;;4978250;28;20025;-83
2021/05/08 06:47:47;;;;;;;11.65;7.35;;;9.30;67.10;;;;;;4989026;28;20058;-81
2021/05/08 06:50:12;;;;;;;13.70;9.07;;;9.40;69.60;;;;;;4976739;28;20038;-85
2021/05/08 06:52:38;;;;;;;14.52;10.52;;;9.30;68.10;;;;;;4975532;28;20019;-82
2021/05/08 06:55:05;;;;;;;15.95;11.35;;;9.40;68.90;;;;;;4975848;28;20453;-87
2021/05/08 06:57:31;;;;;;;14.65;9.07;;;9.50;68.50;;;;;;4979904;28;20099;-85
2021/05/08 06:59:57;;;;;;;13.45;8.45;;;9.50;68.60;;;;;;4981352;28;20102;-86
2021/05/08 07:02:23;;;;;;;11.63;8.02;;;9.60;68.60;;;;;;4979997;28;20128;-84
2021/05/08 07:04:48;;;;;;;15.55;10.63;;;9.70;69.30;;;;;;4978591;28;20037;-84
2021/05/08 07:07:17;;;;;;;16.15;10.35;;;9.70;67.40;;;;;;4980133;28;20031;-83
2021/05/08 07:09:43;;;;;;;14.68;9.55;;;9.70;68.40;;;;;;4978086;28;20026;-85
2021/05/08 07:12:09;;;;;;;17.98;9.85;;;9.70;67.80;;;;;;4978633;28;20033;-84
2021/05/08 07:14:42;;;;;;;11.98;7.78;;;9.80;67.70;;;;;;4979037;28;20019;-81
2021/05/08 07:17:08;;;;;;;15.18;10.20;;;9.80;69.10;;;;;;4977832;28;20034;-83
2021/05/08 07:19:33;;;;;;;10.65;6.90;;;9.90;68.40;;;;;;4978148;28;20090;-82
2021/05/08 07:22:01;;;;;;;13.32;8.10;;;10.00;69.20;;;;;;4977643;28;20019;-82
2021/05/08 07:24:27;;;;;;;11.23;6.57;;;10.10;69.70;;;;;;4985788;28;20489;-83
2021/05/08 07:26:57;;;;;;;12.93;7.50;;;10.20;69.20;;;;;;4976000;28;20035;-82
2021/05/08 07:29:26;;;;;;;14.77;7.00;;;10.30;68.10;;;;;;4975692;28;20049;-82
2021/05/08 07:31:52;;;;;;;14.32;8.30;;;10.40;68.60;;;;;;4976117;28;20114;-82
2021/05/08 07:34:18;;;;;;;14.15;8.15;;;10.50;66.90;;;;;;4976011;28;20054;-81
2021/05/08 07:36:43;;;;;;;12.38;7.35;;;10.60;66.40;;;;;;4977549;28;20066;-83
2021/05/08 07:39:20;;;;;;;10.23;5.20;;;10.70;66.10;;;;;;4980096;28;20023;-81
2021/05/08 07:41:45;;;;;;;10.52;5.40;;;10.80;66.80;;;;;;4990260;28;20031;-82
2021/05/08 07:44:11;;;;;;;10.05;6.07;;;10.90;66.70;;;;;;4994002;28;20027;-82
2021/05/08 07:46:37;;;;;;;12.32;6.97;;;11.00;66.20;;;;;;4991258;28;20026;-83
2021/05/08 07:49:03;;;;;;;11.57;5.10;;;11.00;64.60;;;;;;4993674;28;20509;-83
2021/05/08 07:51:28;;;;;;;12.93;6.88;;;11.10;65.80;;;;;;4996540;28;20082;-81
2021/05/08 07:53:57;;;;;;;10.13;6.18;;;11.20;64.70;;;;;;4995100;28;20038;-82
2021/05/08 07:56:25;;;;;;;14.23;7.75;;;11.20;63.90;;;;;;4984589;28;20111;-82
2021/05/08 07:58:51;;;;;;;10.55;5.38;;;11.30;65.10;;;;;;4978061;28;20050;-82
2021/05/08 08:01:21;;;;;;;12.23;5.20;;;11.40;64.20;;;;;;4980071;28;20081;-81
2021/05/08 08:03:47;;;;;;;10.98;6.55;;;11.50;63.90;;;;;;4974097;28;20035;-83
2021/05/08 08:06:12;;;;;;;11.77;7.70;;;11.50;63.90;;;;;;4974018;28;20109;-83
2021/05/08 08:08:39;;;;;;;9.95;6.32;;;11.50;61.80;;;;;;4977862;28;20350;-83
2021/05/08 08:11:05;;;;;;;11.80;6.40;;;11.60;63.40;;;;;;4979024;28;20058;-83
2021/05/08 08:13:30;;;;;;;10.25;5.72;;;11.60;62.40;;;;;;4980677;28;20045;-82
2021/05/08 08:16:02;;;;;;;7.38;4.28;;;11.60;63.00;;;;;;4982366;28;20047;-85
2021/05/08 08:18:28;;;;;;;7.35;5.20;;;11.70;63.80;;;;;;4981209;28;20026;-79
2021/05/08 08:20:54;;;;;;;9.38;5.13;;;11.80;62.10;;;;;;4980366;28;20035;-85
2021/05/08 08:23:19;;;;;;;9.73;6.72;;;11.80;63.70;;;;;;4982633;28;20071;-86
2021/05/08 08:25:49;;;;;;;10.98;6.90;;;11.90;61.60;;;;;;4985824;28;20350;-85
2021/05/08 08:28:15;;;;;;;11.45;6.10;;;11.90;62.20;;;;;;4984606;28;20045;-87
2021/05/08 08:30:41;;;;;;;11.93;6.85;;;11.90;62.90;;;;;;4987160;28;20015;-85
2021/05/08 08:33:07;;;;;;;8.85;4.13;;;11.90;62.20;;;;;;4997877;28;20090;-85
2021/05/08 08:35:39;;;;;;;9.25;6.18;;;12.00;64.70;;;;;;4996202;28;20074;-85
2021/05/08 08:38:06;;;;;;;12.77;7.95;;;12.10;62.10;;;;;;4991022;28;20033;-86
2021/05/08 08:40:31;;;;;;;13.02;8.35;;;12.10;60.80;;;;;;4983001;28;20054;-86
2021/05/08 08:42:58;;;;;;;11.90;7.32;;;12.10;59.00;;;;;;4981418;28;20073;-86
2021/05/08 08:45:23;;;;;;;12.27;6.82;;;12.10;61.20;;;;;;4986981;28;20027;-86
2021/05/08 08:47:49;;;;;;;10.27;6.65;;;12.10;60.70;;;;;;4981532;28;20082;-86
2021/05/08 08:50:15;;;;;;;11.85;6.60;;;12.00;59.80;;;;;;4983597;28;20066;-87
2021/05/08 08:52:41;;;;;;;12.23;7.53;;;12.10;62.40;;;;;;4982571;28;20029;-86
2021/05/08 08:55:10;;;;;;;13.70;7.03;;;12.10;60.30;;;;;;4987141;28;20073;-87
2021/05/08 08:57:41;;;;;;;10.35;6.03;;;12.20;62.20;;;;;;4985854;28;20038;-85
2021/05/08 09:00:14;;;;;;;13.18;7.72;;;12.20;61.80;;;;;;4981003;28;20051;-85
2021/05/08 09:02:47;;;;;;;11.25;7.13;;;12.30;59.70;;;;;;4981829;28;20377;-87
2021/05/08 09:05:15;;;;;;;14.43;8.40;;;12.50;59.80;;;;;;4980937;28;20019;-87
2021/05/08 09:07:47;;;;;;;9.27;5.55;;;12.60;58.30;;;;;;4980146;28;20094;-87
2021/05/08 09:10:27;;;;;;;10.10;5.53;;;12.80;60.00;;;;;;4979169;28;20031;-86
2021/05/08 09:12:55;;;;;;;13.50;7.88;;;12.80;60.00;;;;;;4981060;28;20033;-88
2021/05/08 09:15:41;;;;;;;14.50;7.57;;;12.90;56.90;;;;;;4978505;28;20079;-87
2021/05/08 09:18:10;;;;;;;13.25;6.18;;;13.10;57.00;;;;;;4976572;28;20477;-86
2021/05/08 09:20:52;;;;;;;10.07;5.93;;;13.30;59.30;;;;;;4975530;28;20046;-87
2021/05/08 09:23:29;;;;;;;10.73;6.78;;;13.40;58.20;;;;;;4959383;28;20121;-87
2021/05/08 09:25:56;;;;;;;11.05;6.13;;;13.60;56.90;;;;;;4958995;28;20030;-84
2021/05/08 09:28:21;;;;;;;8.13;4.05;;;13.60;55.70;;;;;;4958571;28;20036;-87
2021/05/08 09:30:47;;;;;;;10.20;5.15;;;13.60;59.80;;;;;;4959603;28;20034;-85
2021/05/08 09:33:20;;;;;;;13.35;6.53;;;13.70;57.80;;;;;;4961481;28;20035;-85
2021/05/08 09:36:05;;;;;;;8.45;5.40;;;13.80;57.20;;;;;;4974937;28;20152;-84
2021/05/08 09:38:45;;;;;;;11.02;6.00;;;13.80;58.70;;;;;;4994132;28;20091;-85
2021/05/08 09:41:13;;;;;;;8.98;5.03;;;13.70;55.30;;;;;;4996792;28;20086;-85
2021/05/08 09:43:39;;;;;;;12.63;7.05;;;13.70;59.50;;;;;;4998078;28;20030;-87
2021/05/08 09:46:23;;;;;;;11.82;6.55;;;13.70;55.60;;;;;;4994661;28;20030;-85
2021/05/08 09:48:48;;;;;;;11.00;6.50;;;13.70;57.50;;;;;;4999002;28;20029;-87
2021/05/08 09:51:24;;;;;;;9.27;5.65;;;13.80;55.10;;;;;;4986458;28;20102;-86
2021/05/08 09:53:54;;;;;;;10.00;4.03;;;13.90;58.00;;;;;;4980294;28;20150;-86
2021/05/08 09:56:39;;;;;;;8.52;5.13;;;14.00;58.90;;;;;;4977649;28;20082;-86
2021/05/08 09:59:33;;;;;;;12.10;5.85;;;14.10;55.30;;;;;;4978114;28;20054;-85
2021/05/08 10:02:02;;;;;;;8.55;3.33;;;14.20;57.50;;;;;;4974452;28;20027;-86
2021/05/08 10:04:53;;;;;;;9.40;4.78;;;14.30;57.40;;;;;;4960328;28;20027;-86
2021/05/08 10:07:22;;;;;;;12.65;5.68;;;14.50;57.30;;;;;;4959418;28;20055;-86
2021/05/08 10:09:52;;;;;;;12.60;5.57;;;14.50;55.50;;;;;;4970378;28;20437;-87
2021/05/08 10:12:22;;;;;;;8.65;4.50;;;14.50;55.40;;;;;;4980865;28;20037;-84
2021/05/08 10:14:49;;;;;;;8.82;4.95;;;14.50;54.70;;;;;;4977670;28;20054;-85
2021/05/08 10:17:20;;;;;;;8.70;4.65;;;14.50;56.10;;;;;;4978129;28;20037;-83
2021/05/08 10:19:48;;;;;;;10.57;4.82;;;14.60;57.40;;;;;;4979111;28;20022;-84
2021/05/08 10:22:15;;;;;;;11.43;5.05;;;14.60;56.00;;;;;;4979450;28;20166;-86
2021/05/08 10:24:42;;;;;;;9.05;5.28;;;14.70;54.50;;;;;;4982710;28;20054;-86
2021/05/08 10:27:12;;;;;;;8.05;3.40;;;14.80;53.10;;;;;;4983589;28;20038;-86
2021/05/08 10:29:49;;;;;;;8.65;3.75;;;14.90;55.50;;;;;;4983423;28;20023;-87
2021/05/08 10:32:20;;;;;;;6.68;3.17;;;14.80;56.10;;;;;;4984288;28;20026;-86
2021/05/08 10:34:58;;;;;;;6.63;2.92;;;14.60;56.20;;;;;;4985574;28;20035;-82
2021/05/08 10:37:35;;;;;;;6.97;2.88;;;14.60;56.70;;;;;;4992145;28;20031;-87
2021/05/08 10:40:05;;;;;;;6.13;2.20;;;14.60;57.80;;;;;;4983314;28;20050;-85
2021/05/08 10:42:49;;;;;;;5.32;2.58;;;14.70;59.70;;;;;;4981081;28;20050;-86
2021/05/08 10:45:21;;;;;;;4.50;1.90;;;14.70;60.20;;;;;;4980495;28;20019;-87
2021/05/08 10:47:59;;;;;;;6.95;3.60;;;14.80;59.00;;;;;;4976720;28;20027;-85
2021/05/08 10:50:43;;;;;;;5.97;2.47;;;14.80;52.00;;;;;;4977428;28;20054;-87
2021/05/08 10:53:15;;;;;;;6.88;2.70;;;14.80;55.90;;;;;;4971919;28;20019;-82
2021/05/08 10:55:57;;;;;;;6.70;2.70;;;14.80;56.70;;;;;;4958391;28;20033;-84
2021/05/08 10:58:23;;;;;;;7.10;3.53;;;14.70;60.10;;;;;;4960325;28;20303;-86
2021/05/08 11:00:57;;;;;;;8.13;2.97;;;14.60;52.30;;;;;;4978379;28;20066;-85
2021/05/08 11:03:49;;;;;;;8.10;3.70;;;14.60;58.50;;;;;;4977110;28;20543;-84
2021/05/08 11:06:16;;;;;;;6.25;3.42;;;14.40;56.80;;;;;;4975378;28;20031;-87
2021/05/08 11:08:49;;;;;;;6.40;3.42;;;14.40;56.20;;;;;;4975643;28;20037;-85
2021/05/08 11:11:22;;;;;;;6.28;3.20;;;14.30;61.70;;;;;;4973505;28;20110;-86
2021/05/08 11:13:54;;;;;;;9.98;3.47;;;14.20;59.40;;;;;;4975355;28;20418;-87
2021/05/08 11:16:30;;;;;;;6.82;3.22;;;14.10;59.20;;;;;;4980123;28;20023;-87
2021/05/08 11:19:00;;;;;;;7.30;3.78;;;14.00;60.10;;;;;;4981724;28;20019;-86
2021/05/08 11:21:32;;;;;;;10.35;3.92;;;14.00;58.80;;;;;;4982658;28;20046;-84
2021/05/08 11:24:04;;;;;;;8.60;3.53;;;14.00;58.30;;;;;;4982743;28;20054;-81
2021/05/08 11:26:36;;;;;;;6.85;3.17;;;14.10;63.00;;;;;;4992954;28;20038;-84
2021/05/08 11:29:53;;;;;;;7.93;3.58;;;14.10;62.00;;;;;;4988001;28;20102;-85
2021/05/08 11:32:04;;;;;;;8.68;2.95;;;14.00;60.40;;;;;;4985136;28;20023;-84
2021/05/08 11:34:32;;;;;;;8.27;3.63;;;13.90;60.90;;;;;;4993110;28;20046;-85
2021/05/08 11:37:11;;;;;;;8.63;3.10;;;13.90;61.70;;;;;;4997021;28;20011;-84
2021/05/08 11:39:47;;;;;;;6.63;2.90;;;13.80;63.70;;;;;;4996481;28;20039;-85
2021/05/08 11:42:18;;;;;;;5.95;2.88;;;13.80;62.70;;;;;;4996422;28;20030;-87
2021/05/08 11:44:53;;;;;;;7.03;3.15;;;13.70;63.90;;;;;;4995904;28;20041;-87
2021/05/08 11:47:30;;;;;;;7.20;3.90;;;13.70;64.30;;;;;;4986450;28;20093;-86
2021/05/08 11:50:05;;;;;;;6.07;3.22;;;13.70;62.60;;;;;;4976707;28;20062;-85
2021/05/08 11:52:39;;;;;;;8.07;2.58;;;13.50;62.00;;;;;;4978868;28;20022;-87
2021/05/08 11:55:18;;;;;;;9.40;2.80;;;13.40;65.90;;;;;;4975109;28;20109;-85
2021/05/08 11:57:57;;;;;;;7.82;3.50;;;13.30;66.80;;;;;;4963483;28;20027;-84
2021/05/08 12:00:25;;;;;;;8.27;3.90;;;13.30;66.20;;;;;;4973835;28;20082;-86
2021/05/08 12:03:08;;;;;;;7.57;3.50;;;13.20;67.40;;;;;;4958934;29;20027;-85
2021/05/08 12:05:38;;;;;;;7.75;3.55;;;13.10;68.40;;;;;;4958348;28;20114;-85
2021/05/08 12:08:05;;;;;;;7.03;3.50;;;13.10;68.90;;;;;;4958644;29;20031;-84
2021/05/08 12:10:42;;;;;;;5.07;2.30;;;12.90;68.80;;;;;;4959101;29;20027;-87
2021/05/08 12:13:09;;;;;;;6.20;3.28;;;12.80;69.60;;;;;;4958708;29;20032;-84
2021/05/08 12:15:42;;;;;;;8.93;3.47;;;12.70;70.40;;;;;;4966692;28;20066;-86
2021/05/08 12:18:10;;;;;;;8.63;4.25;;;12.60;70.90;;;;;;4977734;28;20078;-85
2021/05/08 12:20:42;;;;;;;6.10;3.45;;;12.50;72.00;;;;;;4980444;28;20551;-84
2021/05/08 12:23:23;;;;;;;8.35;2.53;;;12.40;72.50;;;;;;4976848;28;20046;-84
2021/05/08 12:26:09;;;;;;;5.57;3.35;;;12.30;72.80;;;;;;4978322;28;20026;-85
2021/05/08 12:29:01;;;;;;;6.57;3.22;;;12.20;73.60;;;;;;4975211;28;20479;-84
2021/05/08 12:31:32;;;;;;;6.57;3.28;;;12.20;74.20;;;;;;4958447;29;20045;-84
2021/05/08 12:34:06;;;;;;;9.70;5.00;;;12.00;74.20;;;;;;4962289;28;20031;-84
2021/05/08 12:36:34;;;;;;;7.47;4.53;;;12.00;75.50;;;;;;4961857;28;20023;-86
2021/05/08 12:39:20;;;;;;;5.60;3.33;;;11.90;75.90;;;;;;4970739;28;20023;-83
2021/05/08 12:41:57;;;;;;;8.10;3.97;;;11.90;76.50;;;;;;4961724;28;20099;-87
2021/05/08 12:44:37;;;;;;;7.85;5.22;;;11.80;77.20;;;;;;4957209;28;20481;-87
2021/05/08 12:47:20;;;;;;;7.15;4.03;;;11.80;78.00;;;;;;4956705;28;20035;-87
2021/05/08 12:50:10;;;;;;;9.13;4.80;;;11.70;78.30;;;;;;4941943;29;20042;-84